Time;durP1;ratioP1;P1;durP2;ratioP2;P2;SDS_P1;SDS_P2;PMS_P1;PMS_P2;Temp;Humidity;BMP_temperature;BMP_pressure;BME280_temperature;BME280_humidity;BME280_pressure;Samples;Min_cycle;Max_cycle;Signal;HPM_P1;HPM_P2
2023/07/11 00:00:00;;;;;;;3.75;1.40;;;17.20;99.90;;;;;;5054909;28;20037;-74
2023/07/11 00:02:26;;;;;;;3.95;1.20;;;17.10;99.90;;;;;;5070372;28;20504;-73
2023/07/11 00:04:52;;;;;;;3.92;1.20;;;17.10;99.90;;;;;;5071745;28;20068;-74
2023/07/11 00:07:17;;;;;;;3.05;1.27;;;17.10;99.90;;;;;;5063694;28;20043;-74
2023/07/11 00:09:47;;;;;;;4.60;1.40;;;17.00;99.90;;;;;;5066994;28;20497;-74
2023/07/11 00:12:13;;;;;;;3.55;1.30;;;16.90;99.90;;;;;;5055905;28;20086;-73
2023/07/11 00:14:39;;;;;;;3.45;1.05;;;17.00;99.90;;;;;;5069457;28;20037;-74
2023/07/11 00:17:05;;;;;;;4.82;1.25;;;17.10;99.90;;;;;;5069653;28;20040;-74
2023/07/11 00:19:50;;;;;;;2.42;1.20;;;17.00;99.90;;;;;;5054916;28;20438;-74
2023/07/11 00:22:16;;;;;;;3.53;1.20;;;17.10;99.90;;;;;;5069896;28;20504;-74
2023/07/11 00:24:42;;;;;;;4.40;1.25;;;17.10;99.90;;;;;;5070292;28;20075;-74
2023/07/11 00:27:10;;;;;;;2.55;1.20;;;17.10;99.90;;;;;;5072801;28;20059;-74
2023/07/11 00:29:36;;;;;;;5.38;1.42;;;17.10;99.90;;;;;;5071263;28;20053;-73
2023/07/11 00:32:02;;;;;;;4.82;1.70;;;17.10;99.90;;;;;;5064984;28;20045;-73
2023/07/11 00:34:27;;;;;;;5.78;1.17;;;17.10;99.90;;;;;;5083219;28;20036;-73
2023/07/11 00:36:53;;;;;;;4.30;1.42;;;17.10;99.90;;;;;;5058236;28;20060;-74
2023/07/11 00:39:19;;;;;;;5.15;1.27;;;17.00;99.90;;;;;;5075098;28;20040;-73
2023/07/11 00:41:45;;;;;;;4.05;1.30;;;17.00;99.90;;;;;;5058439;28;20457;-73
2023/07/11 00:44:16;;;;;;;4.90;1.25;;;17.00;99.90;;;;;;5062733;28;20029;-73
2023/07/11 00:46:43;;;;;;;4.97;1.35;;;17.00;99.90;;;;;;5054983;28;20405;-74
2023/07/11 00:49:15;;;;;;;4.13;1.30;;;17.00;99.90;;;;;;5038369;28;20512;-74
2023/07/11 00:51:58;;;;;;;4.35;1.10;;;17.00;99.90;;;;;;5037615;28;20048;-74
2023/07/11 00:54:29;;;;;;;6.35;1.45;;;17.00;99.90;;;;;;5066995;28;20039;-73
2023/07/11 00:56:56;;;;;;;6.18;1.30;;;17.00;99.90;;;;;;5069388;28;20167;-74
2023/07/11 00:59:23;;;;;;;3.78;1.40;;;17.00;99.90;;;;;;5067342;28;20048;-73
2023/07/11 01:02:15;;;;;;;3.75;1.13;;;17.00;99.90;;;;;;5067142;28;20032;-75
2023/07/11 01:04:40;;;;;;;3.88;1.42;;;17.00;99.90;;;;;;5083003;28;20037;-74
2023/07/11 01:07:08;;;;;;;4.85;1.25;;;17.00;99.90;;;;;;5057133;28;20101;-74
2023/07/11 01:09:34;;;;;;;6.65;1.48;;;17.00;99.90;;;;;;5063750;28;20052;-74
2023/07/11 01:12:04;;;;;;;3.22;1.20;;;17.00;99.90;;;;;;5059928;28;20489;-73
2023/07/11 01:14:29;;;;;;;3.80;1.52;;;17.00;99.90;;;;;;5054399;28;20036;-73
2023/07/11 01:16:55;;;;;;;4.45;1.50;;;17.00;99.90;;;;;;5054107;28;20039;-73
2023/07/11 01:19:22;;;;;;;2.85;1.30;;;17.00;99.90;;;;;;5049927;28;20040;-74
2023/07/11 01:21:48;;;;;;;3.70;1.25;;;17.00;99.90;;;;;;5072434;28;20063;-74
2023/07/11 01:24:14;;;;;;;5.10;1.50;;;17.00;99.90;;;;;;5057501;28;20471;-73
2023/07/11 01:26:39;;;;;;;4.93;1.50;;;16.90;99.90;;;;;;5070162;28;20111;-73
2023/07/11 01:29:06;;;;;;;4.63;1.60;;;16.90;99.90;;;;;;5054390;28;20072;-74
2023/07/11 01:31:33;;;;;;;4.32;1.80;;;16.80;99.90;;;;;;5074210;28;20055;-74
2023/07/11 01:34:03;;;;;;;2.47;1.30;;;16.80;99.90;;;;;;5073134;28;20123;-73
2023/07/11 01:36:29;;;;;;;4.55;1.30;;;16.90;99.90;;;;;;5056153;28;20373;-74
2023/07/11 01:38:57;;;;;;;3.58;1.40;;;16.90;99.90;;;;;;5069157;28;20123;-74
2023/07/11 01:41:23;;;;;;;4.47;1.70;;;16.90;99.90;;;;;;5056063;28;20033;-74
2023/07/11 01:43:50;;;;;;;3.97;1.25;;;16.90;99.90;;;;;;5053716;28;20032;-74
2023/07/11 01:46:15;;;;;;;4.68;1.42;;;16.90;99.90;;;;;;5073956;28;20086;-74
2023/07/11 01:48:41;;;;;;;6.38;1.50;;;16.90;99.90;;;;;;5069299;28;20493;-73
2023/07/11 01:51:06;;;;;;;4.75;1.40;;;16.80;99.90;;;;;;5060038;28;20437;-73
2023/07/11 01:53:32;;;;;;;6.35;1.60;;;16.70;99.90;;;;;;5056032;28;20428;-74
2023/07/11 01:56:02;;;;;;;2.85;1.20;;;16.70;99.90;;;;;;5053549;28;20037;-74
2023/07/11 01:58:28;;;;;;;5.38;1.58;;;16.70;99.90;;;;;;5068060;28;20052;-74
2023/07/11 02:00:55;;;;;;;4.78;1.65;;;16.70;99.90;;;;;;5053920;28;20036;-73
2023/07/11 02:03:21;;;;;;;5.32;1.42;;;16.70;99.90;;;;;;5058118;28;20140;-73
2023/07/11 02:05:46;;;;;;;5.68;1.80;;;16.70;99.90;;;;;;5073379;28;20115;-73
2023/07/11 02:08:12;;;;;;;6.00;1.95;;;16.70;99.90;;;;;;5057614;28;20111;-74
2023/07/11 02:10:38;;;;;;;5.10;1.60;;;16.60;99.90;;;;;;5066208;28;20044;-74
2023/07/11 02:13:03;;;;;;;5.07;1.40;;;16.70;99.90;;;;;;5056484;28;20044;-73
2023/07/11 02:15:29;;;;;;;4.85;1.63;;;16.70;99.90;;;;;;5073484;28;20040;-73
2023/07/11 02:17:55;;;;;;;4.72;1.55;;;16.70;99.90;;;;;;5068162;28;20040;-74
2023/07/11 02:20:20;;;;;;;3.63;1.40;;;16.70;99.90;;;;;;5087764;28;20504;-74
2023/07/11 02:22:46;;;;;;;4.70;2.05;;;16.70;99.90;;;;;;5069801;28;20036;-73
2023/07/11 02:25:12;;;;;;;6.00;1.90;;;16.70;99.90;;;;;;5071694;28;20047;-73
2023/07/11 02:27:37;;;;;;;5.93;1.33;;;16.70;99.90;;;;;;5053994;28;20060;-73
2023/07/11 02:30:03;;;;;;;3.78;1.20;;;16.70;99.90;;;;;;5073090;28;20041;-73
2023/07/11 02:32:29;;;;;;;3.25;1.33;;;16.70;99.90;;;;;;5053457;28;20055;-74
2023/07/11 02:34:55;;;;;;;3.05;1.35;;;16.80;99.90;;;;;;5072658;28;20399;-74
2023/07/11 02:37:21;;;;;;;3.75;1.38;;;16.70;99.90;;;;;;5067142;28;20036;-74
2023/07/11 02:39:47;;;;;;;4.75;1.45;;;16.70;99.90;;;;;;5052663;28;20444;-74
2023/07/11 02:42:13;;;;;;;5.43;1.70;;;16.70;99.90;;;;;;5051297;28;20063;-74
2023/07/11 02:44:38;;;;;;;3.90;1.52;;;16.70;99.90;;;;;;5072383;28;20496;-73
2023/07/11 02:47:04;;;;;;;5.82;1.85;;;16.70;99.90;;;;;;5070943;28;20036;-74
2023/07/11 02:49:30;;;;;;;4.85;1.60;;;16.70;99.90;;;;;;5053512;28;20033;-74
2023/07/11 02:51:55;;;;;;;3.85;1.40;;;16.70;99.90;;;;;;5069472;28;20068;-74
2023/07/11 02:54:21;;;;;;;3.25;1.30;;;16.70;99.90;;;;;;5072249;28;20040;-73
2023/07/11 02:56:46;;;;;;;3.97;1.50;;;16.70;99.90;;;;;;5066839;28;20080;-74
2023/07/11 02:59:12;;;;;;;3.33;1.30;;;16.70;99.90;;;;;;5062996;28;20127;-74
2023/07/11 03:01:37;;;;;;;3.85;1.73;;;16.70;99.90;;;;;;5054093;28;20396;-74
2023/07/11 03:04:03;;;;;;;4.53;1.50;;;16.70;99.90;;;;;;5070186;28;20040;-73
2023/07/11 03:06:29;;;;;;;5.05;1.25;;;16.70;99.90;;;;;;5070395;28;20404;-74
2023/07/11 03:08:55;;;;;;;3.35;1.20;;;16.70;99.90;;;;;;5066806;28;20044;-74
2023/07/11 03:11:20;;;;;;;2.60;1.25;;;16.70;99.90;;;;;;5071239;28;20080;-73
2023/07/11 03:13:46;;;;;;;4.60;1.45;;;16.70;99.90;;;;;;5055566;28;20046;-73
2023/07/11 03:16:11;;;;;;;4.18;1.48;;;16.70;99.90;;;;;;5052687;28;20036;-74
2023/07/11 03:18:40;;;;;;;3.80;1.40;;;16.60;99.90;;;;;;5041339;28;20392;-74
2023/07/11 03:21:06;;;;;;;5.43;1.70;;;16.50;99.90;;;;;;5068398;28;20132;-74
2023/07/11 03:23:31;;;;;;;5.05;1.80;;;16.50;99.90;;;;;;5071032;28;20455;-73
2023/07/11 03:25:57;;;;;;;5.90;1.90;;;16.50;99.90;;;;;;5071839;28;20048;-74
2023/07/11 03:28:23;;;;;;;5.53;1.80;;;16.50;99.90;;;;;;5065050;28;20059;-73
2023/07/11 03:30:49;;;;;;;8.65;2.10;;;16.50;99.90;;;;;;5073319;28;20471;-74
2023/07/11 03:33:14;;;;;;;5.32;2.10;;;16.50;99.90;;;;;;5053209;28;20119;-74
2023/07/11 03:35:40;;;;;;;7.57;2.33;;;16.50;99.90;;;;;;5070236;28;20045;-74
2023/07/11 03:38:06;;;;;;;7.90;2.10;;;16.50;99.90;;;;;;5056314;28;20043;-74
2023/07/11 03:40:31;;;;;;;7.50;2.15;;;16.50;99.90;;;;;;5051917;28;20448;-74
2023/07/11 03:42:57;;;;;;;7.03;2.30;;;16.50;99.90;;;;;;5068647;28;20032;-74
2023/07/11 03:45:23;;;;;;;8.60;2.42;;;16.60;99.90;;;;;;5071689;28;20090;-74
2023/07/11 03:47:49;;;;;;;6.57;2.05;;;16.60;99.90;;;;;;5066831;28;20544;-74
2023/07/11 03:50:15;;;;;;;6.07;1.67;;;16.60;99.90;;;;;;5054964;28;20127;-74
2023/07/11 03:52:41;;;;;;;5.32;1.80;;;16.60;99.90;;;;;;5046231;28;20158;-74
2023/07/11 03:55:07;;;;;;;4.60;1.80;;;16.60;99.90;;;;;;5034864;28;20481;-74
2023/07/11 03:57:33;;;;;;;4.20;1.58;;;16.60;99.90;;;;;;5056138;28;20094;-74
2023/07/11 03:59:58;;;;;;;5.07;1.65;;;16.60;99.90;;;;;;5054937;28;20112;-74
2023/07/11 04:02:24;;;;;;;5.03;1.67;;;16.60;99.90;;;;;;5053000;28;20040;-74
2023/07/11 04:04:50;;;;;;;5.55;1.80;;;16.60;99.90;;;;;;5071820;28;20378;-74
2023/07/11 04:07:15;;;;;;;3.78;1.40;;;16.60;99.90;;;;;;5052762;28;20032;-73
2023/07/11 04:09:42;;;;;;;5.43;1.92;;;16.60;99.90;;;;;;5075393;28;20060;-74
2023/07/11 04:12:09;;;;;;;5.97;1.73;;;16.60;99.90;;;;;;5072699;28;20051;-74
2023/07/11 04:14:35;;;;;;;8.23;1.70;;;16.60;99.90;;;;;;5076306;28;20547;-74
2023/07/11 04:17:00;;;;;;;5.80;2.20;;;16.60;99.90;;;;;;5073021;28;20134;-74
2023/07/11 04:19:26;;;;;;;5.68;1.85;;;16.50;99.90;;;;;;5072791;28;20412;-73
2023/07/11 04:21:51;;;;;;;6.18;2.10;;;16.50;99.90;;;;;;5056858;28;20041;-73
2023/07/11 04:24:17;;;;;;;6.15;2.10;;;16.50;99.90;;;;;;5055946;28;20039;-73
2023/07/11 04:26:42;;;;;;;7.00;1.92;;;16.50;99.90;;;;;;5072802;28;20033;-73
2023/07/11 04:29:08;;;;;;;5.43;2.35;;;16.50;99.90;;;;;;5065287;28;20079;-73
2023/07/11 04:31:34;;;;;;;5.85;2.03;;;16.50;99.90;;;;;;5074993;28;20048;-73
2023/07/11 04:33:59;;;;;;;6.78;2.40;;;16.50;99.90;;;;;;5057517;28;20082;-73
2023/07/11 04:36:25;;;;;;;6.93;2.75;;;16.50;99.90;;;;;;5072020;28;20086;-73
2023/07/11 04:38:51;;;;;;;8.07;2.50;;;16.60;99.90;;;;;;5054911;28;20426;-73
2023/07/11 04:41:16;;;;;;;5.97;2.50;;;16.50;99.90;;;;;;5068935;28;20036;-73
2023/07/11 04:43:42;;;;;;;4.35;2.08;;;16.50;99.90;;;;;;5053773;28;20057;-73
2023/07/11 04:46:09;;;;;;;6.10;2.15;;;16.50;99.90;;;;;;5073480;28;20064;-73
2023/07/11 04:48:35;;;;;;;6.28;2.65;;;16.60;99.90;;;;;;5071610;28;20092;-74
2023/07/11 04:51:03;;;;;;;7.30;2.50;;;16.60;99.90;;;;;;5059805;28;20079;-74
2023/07/11 04:53:30;;;;;;;6.93;2.45;;;16.60;99.90;;;;;;5074059;28;20130;-73
2023/07/11 04:55:57;;;;;;;8.40;3.22;;;16.60;99.90;;;;;;5069270;28;20481;-73
2023/07/11 04:58:24;;;;;;;8.20;3.08;;;16.80;99.90;;;;;;5037283;28;20044;-73
2023/07/11 05:00:50;;;;;;;9.25;2.83;;;16.80;99.90;;;;;;5073237;28;20047;-73
2023/07/11 05:03:16;;;;;;;10.07;3.28;;;16.90;99.90;;;;;;5072606;28;20453;-74
2023/07/11 05:05:42;;;;;;;8.57;3.33;;;16.90;99.90;;;;;;5072151;28;20036;-74
2023/07/11 05:08:08;;;;;;;8.82;3.53;;;16.90;99.90;;;;;;5055466;28;20404;-74
2023/07/11 05:10:33;;;;;;;7.55;3.10;;;17.00;99.90;;;;;;5056540;28;20043;-74
2023/07/11 05:12:59;;;;;;;13.05;3.58;;;17.10;99.90;;;;;;5075509;28;20498;-74
2023/07/11 05:15:24;;;;;;;8.88;3.55;;;17.20;99.90;;;;;;5055693;28;20052;-73
2023/07/11 05:17:50;;;;;;;8.95;3.25;;;17.20;99.90;;;;;;5066673;28;20079;-73
2023/07/11 05:20:16;;;;;;;8.40;3.50;;;17.20;99.90;;;;;;5073621;28;20128;-73
2023/07/11 05:22:41;;;;;;;8.10;3.15;;;17.30;99.90;;;;;;5069438;28;20040;-74
2023/07/11 05:25:07;;;;;;;9.80;3.60;;;17.40;99.90;;;;;;5074316;28;20499;-74
2023/07/11 05:27:33;;;;;;;9.68;3.88;;;17.50;99.90;;;;;;5052658;28;20079;-74
2023/07/11 05:29:58;;;;;;;10.05;4.25;;;17.70;99.90;;;;;;5072454;28;20078;-74
2023/07/11 05:32:24;;;;;;;12.15;4.35;;;17.90;99.90;;;;;;5072115;28;20051;-73
2023/07/11 05:34:49;;;;;;;10.15;4.05;;;17.90;99.90;;;;;;5072215;28;20378;-74
2023/07/11 05:37:15;;;;;;;8.77;3.75;;;18.00;99.90;;;;;;5065534;28;20045;-74
2023/07/11 05:39:40;;;;;;;12.07;4.75;;;18.00;99.90;;;;;;5067660;28;20041;-73
2023/07/11 05:42:06;;;;;;;10.80;4.65;;;18.20;99.90;;;;;;5058950;28;20119;-74
2023/07/11 05:44:32;;;;;;;8.77;4.38;;;18.20;99.90;;;;;;5054561;28;20036;-74
2023/07/11 05:46:57;;;;;;;8.77;4.30;;;18.30;99.90;;;;;;5054249;28;20040;-73
2023/07/11 05:49:23;;;;;;;11.52;5.20;;;18.40;99.90;;;;;;5056646;28;20111;-74
2023/07/11 05:51:49;;;;;;;10.15;4.55;;;18.40;99.90;;;;;;5069316;28;20094;-74
2023/07/11 05:54:15;;;;;;;11.65;4.88;;;18.50;99.90;;;;;;5046957;28;20036;-73
2023/07/11 05:56:41;;;;;;;9.68;4.78;;;18.60;99.90;;;;;;5058249;28;20503;-73
2023/07/11 05:59:06;;;;;;;10.10;4.55;;;18.60;99.90;;;;;;5076481;28;20094;-74
2023/07/11 06:01:32;;;;;;;10.43;4.57;;;18.70;99.90;;;;;;5056810;28;20040;-74
2023/07/11 06:04:16;;;;;;;10.55;4.78;;;18.80;99.90;;;;;;5068977;28;20040;-74
2023/07/11 06:06:42;;;;;;;10.52;4.85;;;19.00;99.90;;;;;;5069879;28;20041;-74
2023/07/11 06:09:18;;;;;;;11.93;5.10;;;19.10;99.90;;;;;;5053533;28;20043;-74
2023/07/11 06:11:47;;;;;;;9.15;4.65;;;19.10;99.90;;;;;;5053376;28;20102;-74
2023/07/11 06:14:13;;;;;;;11.13;4.60;;;19.30;99.90;;;;;;5064624;28;20043;-74
2023/07/11 06:16:40;;;;;;;8.00;4.22;;;19.40;99.90;;;;;;5056253;28;20040;-74
2023/07/11 06:19:05;;;;;;;11.65;4.65;;;19.60;99.90;;;;;;5058058;28;20049;-74
2023/07/11 06:21:31;;;;;;;9.82;4.32;;;19.70;99.90;;;;;;5036991;28;20489;-74
2023/07/11 06:23:57;;;;;;;9.13;4.10;;;19.80;99.90;;;;;;5054453;28;20492;-74
2023/07/11 06:26:23;;;;;;;10.77;4.65;;;19.90;99.90;;;;;;5071948;28;20044;-74
2023/07/11 06:28:48;;;;;;;10.65;4.47;;;20.10;99.90;;;;;;5072688;28;20048;-74
2023/07/11 06:31:15;;;;;;;10.93;4.32;;;20.20;99.90;;;;;;5071879;28;20400;-74
2023/07/11 06:33:41;;;;;;;8.75;4.00;;;20.30;99.90;;;;;;5074200;28;20040;-74
2023/07/11 06:36:08;;;;;;;10.10;3.67;;;20.40;99.90;;;;;;5055916;28;20046;-74
2023/07/11 06:38:34;;;;;;;8.35;3.47;;;20.50;99.90;;;;;;5056024;28;20037;-74
2023/07/11 06:41:00;;;;;;;8.80;3.58;;;20.50;99.90;;;;;;5056263;28;20133;-74
2023/07/11 06:43:27;;;;;;;7.68;3.67;;;20.60;99.90;;;;;;5072528;28;20496;-74
2023/07/11 06:45:54;;;;;;;10.05;4.00;;;20.60;99.90;;;;;;5056040;28;20413;-74
2023/07/11 06:48:21;;;;;;;10.00;4.00;;;20.70;99.90;;;;;;5055744;28;20032;-74
2023/07/11 06:50:50;;;;;;;9.80;4.03;;;20.60;99.90;;;;;;5072429;28;20040;-75
2023/07/11 06:53:17;;;;;;;9.68;3.60;;;20.70;99.90;;;;;;5055944;28;20394;-74
2023/07/11 06:55:51;;;;;;;9.25;3.50;;;20.80;99.90;;;;;;5071323;28;20037;-74
2023/07/11 06:58:18;;;;;;;9.43;3.90;;;20.90;99.90;;;;;;5054617;28;20447;-74
2023/07/11 07:00:43;;;;;;;7.63;3.65;;;20.80;99.90;;;;;;5055611;28;20074;-74
2023/07/11 07:03:13;;;;;;;7.85;3.45;;;20.90;99.90;;;;;;5072226;28;20068;-74
2023/07/11 07:05:50;;;;;;;9.65;3.83;;;21.00;99.90;;;;;;5073581;28;20094;-74
2023/07/11 07:08:17;;;;;;;9.15;3.88;;;21.10;99.90;;;;;;5072125;28;20047;-74
2023/07/11 07:10:45;;;;;;;9.45;3.92;;;21.10;99.90;;;;;;5055590;28;20048;-74
2023/07/11 07:13:11;;;;;;;8.70;3.67;;;21.10;99.90;;;;;;5072092;28;20040;-74
2023/07/11 07:15:36;;;;;;;10.70;3.75;;;21.20;99.90;;;;;;5055355;28;20046;-74
2023/07/11 07:18:02;;;;;;;8.45;3.47;;;21.30;99.90;;;;;;5055432;28;20028;-74
2023/07/11 07:20:27;;;;;;;8.35;3.50;;;21.30;99.90;;;;;;5055355;28;20029;-74
2023/07/11 07:22:53;;;;;;;11.77;3.75;;;21.30;99.90;;;;;;5072005;28;20048;-73
2023/07/11 07:25:19;;;;;;;11.30;3.58;;;21.50;99.90;;;;;;5070762;28;20037;-75
2023/07/11 07:27:44;;;;;;;10.05;3.60;;;21.60;99.90;;;;;;5054953;28;20063;-74
2023/07/11 07:30:11;;;;;;;7.97;3.60;;;21.70;99.90;;;;;;5071995;28;20071;-74
2023/07/11 07:32:37;;;;;;;9.23;3.45;;;21.80;99.90;;;;;;5071923;28;20040;-74
2023/07/11 07:35:03;;;;;;;7.85;3.40;;;21.90;99.90;;;;;;5072105;28;20051;-74
2023/07/11 07:37:29;;;;;;;12.38;3.47;;;22.00;99.90;;;;;;5065995;28;20378;-73
2023/07/11 07:39:54;;;;;;;11.68;2.97;;;22.10;99.90;;;;;;5070429;28;20039;-74
2023/07/11 07:42:20;;;;;;;10.02;3.33;;;22.20;99.90;;;;;;5046527;28;20040;-73
2023/07/11 07:44:47;;;;;;;8.35;3.30;;;22.20;99.90;;;;;;5069276;28;20029;-73
2023/07/11 07:47:12;;;;;;;8.35;3.20;;;22.20;99.90;;;;;;5045134;28;20029;-73
2023/07/11 07:49:38;;;;;;;9.52;3.33;;;22.20;99.90;;;;;;5075244;28;20055;-73
2023/07/11 07:52:04;;;;;;;7.40;3.55;;;22.30;99.90;;;;;;5055924;28;20055;-74
2023/07/11 07:54:30;;;;;;;8.23;3.70;;;22.40;99.90;;;;;;5059054;28;20036;-77
2023/07/11 07:56:55;;;;;;;6.50;3.13;;;22.50;99.90;;;;;;5077824;28;20580;-77
2023/07/11 07:59:21;;;;;;;8.27;3.25;;;22.60;99.90;;;;;;5057851;28;20078;-74
2023/07/11 08:01:46;;;;;;;9.27;3.67;;;22.60;99.90;;;;;;5078727;28;20502;-74
2023/07/11 08:04:12;;;;;;;7.32;3.30;;;22.70;99.90;;;;;;5068322;28;20037;-74
2023/07/11 08:06:37;;;;;;;7.68;3.40;;;22.80;99.90;;;;;;5059462;28;20064;-74
2023/07/11 08:09:03;;;;;;;9.57;3.40;;;22.90;99.90;;;;;;5087497;28;20049;-74
2023/07/11 08:11:29;;;;;;;10.57;3.30;;;22.90;99.90;;;;;;5077214;28;20040;-74
2023/07/11 08:13:54;;;;;;;7.72;2.95;;;22.90;99.90;;;;;;5070504;28;20047;-74
2023/07/11 08:16:20;;;;;;;7.45;3.13;;;23.00;99.90;;;;;;5075818;28;20032;-74
2023/07/11 08:18:46;;;;;;;6.80;3.10;;;23.10;99.90;;;;;;5050815;28;20069;-74
2023/07/11 08:21:12;;;;;;;7.07;2.95;;;23.20;99.90;;;;;;5075120;28;20040;-75
2023/07/11 08:23:37;;;;;;;7.78;2.90;;;23.20;99.90;;;;;;5076986;28;20041;-74
2023/07/11 08:26:03;;;;;;;7.40;3.20;;;23.40;99.90;;;;;;5072924;28;20039;-74
2023/07/11 08:28:28;;;;;;;7.63;3.00;;;23.40;99.90;;;;;;5085073;28;20102;-74
2023/07/11 08:30:54;;;;;;;7.85;3.20;;;23.60;99.90;;;;;;5076813;28;20550;-74
2023/07/11 08:33:19;;;;;;;10.82;3.15;;;23.70;99.90;;;;;;5060248;28;20099;-74
2023/07/11 08:35:45;;;;;;;9.60;3.53;;;23.70;99.90;;;;;;5061304;28;20040;-74
2023/07/11 08:38:11;;;;;;;8.00;3.67;;;23.80;99.90;;;;;;5052720;28;20041;-75
2023/07/11 08:40:44;;;;;;;7.57;3.00;;;23.90;99.90;;;;;;5088901;28;20037;-74
2023/07/11 08:43:16;;;;;;;6.93;2.97;;;24.00;99.90;;;;;;5064017;28;20485;-74
2023/07/11 08:46:05;;;;;;;9.00;2.85;;;24.10;99.90;;;;;;5078165;28;20467;-74
2023/07/11 08:48:46;;;;;;;8.55;2.90;;;24.20;99.90;;;;;;5067196;28;20041;-75
2023/07/11 08:51:34;;;;;;;9.80;2.75;;;24.20;99.90;;;;;;5073168;28;20040;-74
2023/07/11 08:54:26;;;;;;;9.90;2.88;;;24.20;99.90;;;;;;5072096;28;20032;-74
2023/07/11 08:56:51;;;;;;;7.57;3.10;;;24.30;99.90;;;;;;5071873;28;20044;-75
2023/07/11 08:59:37;;;;;;;9.43;3.33;;;24.40;99.90;;;;;;5072965;28;20040;-74
2023/07/11 09:02:23;;;;;;;7.80;2.60;;;24.40;99.90;;;;;;5059021;28;20036;-75
2023/07/11 09:04:52;;;;;;;7.00;2.65;;;24.50;99.90;;;;;;5051563;28;20416;-75
2023/07/11 09:07:40;;;;;;;6.28;2.80;;;24.60;99.90;;;;;;5056331;28;20090;-75
2023/07/11 09:10:15;;;;;;;8.63;2.80;;;24.70;99.90;;;;;;5057449;28;20032;-75
2023/07/11 09:13:07;;;;;;;7.32;2.90;;;24.70;99.90;;;;;;5068988;28;20087;-74
2023/07/11 09:15:51;;;;;;;;;;;24.70;99.90;;;;;;5054024;28;20492;-74
2023/07/11 09:18:37;;;;;;;7.60;2.40;;;24.70;99.90;;;;;;5056186;28;20007;-74
2023/07/11 09:21:31;;;;;;;6.97;2.70;;;24.80;99.90;;;;;;5071242;28;20037;-74
2023/07/11 09:24:07;;;;;;;6.50;2.35;;;24.80;99.90;;;;;;5066056;28;20115;-74
2023/07/11 09:26:40;;;;;;;10.07;2.78;;;24.80;99.90;;;;;;5037163;28;20048;-74
2023/07/11 09:29:07;;;;;;;6.85;2.53;;;24.90;99.90;;;;;;5065035;28;20056;-74
2023/07/11 09:31:43;;;;;;;8.30;2.47;;;25.00;99.90;;;;;;5072942;28;20127;-74
2023/07/11 09:34:35;;;;;;;7.40;2.75;;;25.00;99.90;;;;;;5057848;28;20124;-74
2023/07/11 09:37:21;;;;;;;5.60;2.05;;;25.10;99.90;;;;;;5045605;28;20044;-74
2023/07/11 09:39:57;;;;;;;8.55;2.22;;;25.10;99.90;;;;;;5041209;28;20041;-74
2023/07/11 09:42:47;;;;;;;9.43;2.40;;;25.20;99.90;;;;;;5071557;28;20036;-74
2023/07/11 09:45:20;;;;;;;6.90;2.30;;;25.30;99.90;;;;;;5046820;28;20044;-74
2023/07/11 09:47:58;;;;;;;6.88;2.03;;;25.20;99.90;;;;;;5053264;28;20132;-74
2023/07/11 09:50:33;;;;;;;6.07;2.20;;;25.20;99.90;;;;;;5054032;28;20037;-74
2023/07/11 09:53:01;;;;;;;6.03;2.10;;;25.30;99.90;;;;;;5053572;28;20044;-74
2023/07/11 09:55:34;;;;;;;6.72;2.33;;;25.30;99.90;;;;;;5051427;28;20090;-74
2023/07/11 09:58:01;;;;;;;6.25;2.38;;;25.40;99.90;;;;;;5072888;28;20044;-74
2023/07/11 10:00:28;;;;;;;7.32;2.30;;;25.30;99.90;;;;;;5060539;28;20417;-74
2023/07/11 10:02:53;;;;;;;7.00;2.10;;;25.30;99.90;;;;;;5039022;28;20032;-74
2023/07/11 10:05:23;;;;;;;5.38;2.15;;;25.40;99.90;;;;;;5067806;28;20036;-74
2023/07/11 10:08:03;;;;;;;6.70;2.13;;;25.30;99.90;;;;;;5068879;28;20036;-74
2023/07/11 10:10:29;;;;;;;5.45;2.20;;;25.40;99.90;;;;;;5081688;28;20068;-74
2023/07/11 10:12:55;;;;;;;7.35;2.30;;;25.50;99.90;;;;;;5058135;28;20452;-74
2023/07/11 10:15:24;;;;;;;5.93;2.20;;;25.70;99.90;;;;;;5064914;28;20036;-75
2023/07/11 10:17:55;;;;;;;6.57;2.25;;;25.80;99.90;;;;;;5060202;28;20040;-74
2023/07/11 10:20:22;;;;;;;8.88;2.63;;;25.90;99.90;;;;;;5060485;28;20055;-75
2023/07/11 10:22:50;;;;;;;7.75;2.20;;;26.10;99.90;;;;;;5068888;28;20028;-75
2023/07/11 10:25:26;;;;;;;9.40;2.45;;;26.20;99.90;;;;;;5054314;28;20503;-75
2023/07/11 10:27:56;;;;;;;6.57;2.08;;;26.30;99.90;;;;;;5052334;28;20088;-75
2023/07/11 10:30:27;;;;;;;6.40;2.28;;;26.20;99.90;;;;;;5050104;28;20079;-75
2023/07/11 10:33:00;;;;;;;6.60;2.50;;;26.10;99.90;;;;;;5035664;28;20052;-75
2023/07/11 10:35:26;;;;;;;9.18;2.67;;;26.10;99.90;;;;;;5048765;28;20048;-75
2023/07/11 10:37:59;;;;;;;8.15;2.58;;;26.00;99.90;;;;;;5061459;28;20040;-75
2023/07/11 10:40:34;;;;;;;8.13;2.58;;;26.00;99.90;;;;;;5069288;28;20497;-76
2023/07/11 10:43:15;;;;;;;7.38;2.70;;;26.10;99.90;;;;;;5047704;28;20078;-76
2023/07/11 10:45:44;;;;;;;6.70;2.65;;;26.30;99.90;;;;;;5070453;28;20377;-76
2023/07/11 10:48:19;;;;;;;8.07;2.42;;;26.40;99.90;;;;;;5036067;28;20036;-76
2023/07/11 10:50:59;;;;;;;5.95;2.22;;;26.40;99.90;;;;;;5062026;28;20079;-75
2023/07/11 10:53:42;;;;;;;9.30;2.08;;;26.40;99.90;;;;;;5073215;28;20037;-76
2023/07/11 10:56:21;;;;;;;6.68;2.10;;;26.50;99.90;;;;;;5071862;28;20068;-76
2023/07/11 10:58:47;;;;;;;8.25;2.15;;;26.60;99.90;;;;;;5054480;28;20048;-75
2023/07/11 11:01:24;;;;;;;7.22;2.97;;;26.70;99.90;;;;;;5055220;28;20389;-75
2023/07/11 11:03:55;;;;;;;7.10;2.53;;;26.80;99.90;;;;;;5054790;28;20033;-75
2023/07/11 11:06:54;;;;;;;7.93;2.58;;;26.70;99.90;;;;;;5055356;28;20032;-75
2023/07/11 11:09:35;;;;;;;8.10;1.83;;;26.70;99.90;;;;;;5070187;28;20102;-76
2023/07/11 11:12:34;;;;;;;5.93;1.90;;;26.70;99.90;;;;;;5055105;28;20037;-76
2023/07/11 11:15:21;;;;;;;9.57;2.20;;;26.90;99.90;;;;;;5054997;28;20489;-76
2023/07/11 11:18:08;;;;;;;9.13;2.30;;;26.80;99.90;;;;;;5065988;28;20497;-76
2023/07/11 11:20:53;;;;;;;6.43;2.03;;;26.80;99.90;;;;;;5052370;28;20116;-76
2023/07/11 11:23:49;;;;;;;6.00;2.08;;;26.90;99.90;;;;;;5051704;28;20519;-78
2023/07/11 11:26:35;;;;;;;9.02;2.45;;;26.80;99.90;;;;;;5042223;28;20056;-74
2023/07/11 11:29:33;;;;;;;9.57;2.08;;;26.90;99.90;;;;;;5075114;28;20049;-74
2023/07/11 11:32:15;;;;;;;8.35;2.50;;;26.90;99.90;;;;;;5022825;28;20044;-75
2023/07/11 11:35:03;;;;;;;9.32;2.10;;;27.00;99.90;;;;;;5050730;28;20079;-74
2023/07/11 11:38:04;;;;;;;10.02;2.30;;;27.10;99.90;;;;;;5059517;28;20456;-75
2023/07/11 11:40:30;;;;;;;7.85;2.58;;;27.10;99.90;;;;;;5034265;28;20032;-75
2023/07/11 11:43:00;;;;;;;6.53;1.90;;;27.20;99.90;;;;;;5051509;28;20068;-75
2023/07/11 11:45:27;;;;;;;7.65;2.53;;;27.20;99.90;;;;;;5052991;28;20033;-75
2023/07/11 11:47:54;;;;;;;6.25;2.58;;;27.10;99.90;;;;;;5068047;28;20051;-75
2023/07/11 11:50:23;;;;;;;5.47;2.03;;;27.10;99.90;;;;;;5069564;28;20085;-75
2023/07/11 11:53:18;;;;;;;6.25;2.50;;;27.10;99.90;;;;;;5068716;28;20124;-76
2023/07/11 11:55:56;;;;;;;8.00;2.38;;;27.20;98.80;;;;;;5064829;28;20041;-75
2023/07/11 11:58:24;;;;;;;6.85;2.00;;;27.20;99.70;;;;;;5071109;28;20040;-74
2023/07/11 12:00:54;;;;;;;7.53;2.00;;;27.10;99.80;;;;;;5046143;28;20040;-75
2023/07/11 12:03:32;;;;;;;5.75;2.28;;;27.10;99.30;;;;;;5052480;28;20489;-75
2023/07/11 12:06:01;;;;;;;5.22;2.20;;;27.20;98.40;;;;;;5064455;28;20040;-75
2023/07/11 12:08:37;;;;;;;7.10;2.38;;;27.10;99.90;;;;;;5050409;28;20166;-75
2023/07/11 12:11:09;;;;;;;9.68;2.30;;;27.00;99.90;;;;;;5065388;28;20581;-75
2023/07/11 12:13:39;;;;;;;;;;;27.10;99.60;;;;;;5070228;28;20388;-75
2023/07/11 12:16:29;;;;;;;7.50;2.10;;;27.10;99.30;;;;;;5071685;28;20043;-75
2023/07/11 12:18:59;;;;;;;7.13;2.78;;;27.00;99.20;;;;;;5039078;28;20163;-75
2023/07/11 12:21:38;;;;;;;4.47;1.95;;;27.00;99.50;;;;;;5066746;28;20463;-75
2023/07/11 12:24:39;;;;;;;5.53;2.10;;;27.00;99.90;;;;;;5057839;28;20037;-74
2023/07/11 12:27:30;;;;;;;7.72;2.60;;;26.90;99.40;;;;;;5067374;28;20047;-75
2023/07/11 12:29:57;;;;;;;8.52;2.63;;;26.90;99.30;;;;;;5053007;28;20456;-74
2023/07/11 12:32:32;;;;;;;6.63;2.42;;;27.00;99.60;;;;;;5070856;28;20049;-74
2023/07/11 12:35:04;;;;;;;9.27;2.75;;;26.90;99.90;;;;;;5054694;28;20119;-75
2023/07/11 12:37:33;;;;;;;;;;;27.00;99.90;;;;;;5054145;28;20064;-75
2023/07/11 12:40:14;;;;;;;6.63;2.33;;;26.90;99.90;;;;;;5040746;28;19917;-75
2023/07/11 12:42:46;;;;;;;5.43;2.33;;;27.00;99.90;;;;;;5053482;28;20044;-75
2023/07/11 12:45:26;;;;;;;8.30;2.45;;;27.00;99.90;;;;;;5050669;28;20041;-75
2023/07/11 12:48:11;;;;;;;7.70;2.38;;;27.00;99.90;;;;;;5053475;28;20037;-75
2023/07/11 12:50:52;;;;;;;6.07;2.20;;;27.10;98.80;;;;;;5059196;28;20043;-75
2023/07/11 12:53:17;;;;;;;5.33;2.07;;;27.10;99.10;;;;;;5071802;28;20037;-75
2023/07/11 12:55:44;;;;;;;7.70;2.72;;;27.00;99.60;;;;;;5048560;28;20035;-74
2023/07/11 12:58:17;;;;;;;6.72;2.28;;;27.10;99.40;;;;;;5058227;28;20048;-75